Aviation Digital Data Service (ADDS)

Output produced by METARs form (1603 UTC 31 August 2016)
found at http://www.aviationweather.gov/adds/metars/
 
KCRQ 311553Z 22004KT 4SM BR OVC004 20/19 A2986 RMK AO2 SLP109 T02000189
KCRQ 311534Z 00000KT 3SM BR OVC003 19/19 A2985 RMK AO2 T01940194
KCRQ 311510Z 00000KT 2SM R24/5500VP6000FT BR OVC002 19/19 A2985 RMK AO2 T01940189
KCRQ 311453Z 00000KT 1/2SM R24/2600VP6000FT FG OVC002 19/19 A2984 RMK AO2 SLP103 T01890189 51008
KCRQ 311441Z 00000KT 1/2SM R24/2000VP6000FT FG VV002 19/19 A2984 RMK AO2 T01890189
KCRQ 311427Z 00000KT 1/4SM R24/1200V2400FT FG VV002 19/19 A2984 RMK AO2 TWR VIS 1/2 T01890189
KCRQ 311400Z AUTO 00000KT 1/2SM R24/2200VP6000FT FG OVC002 19/19 A2984 RMK AO2 T01890189
KCRQ 311353Z AUTO 00000KT 1/4SM R24/1800V2600FT FG VV002 19/19 A2983 RMK AO2 SLP100 T01890189
KCRQ 311350Z AUTO 00000KT 1/2SM R24/1800V5000FT FG VV002 19/19 A2983 RMK AO2
KCRQ 311326Z AUTO 00000KT 1 1/4SM R24/3000VP6000FT BR OVC002 19/19 A2982 RMK AO2 T01890189
KCRQ 311253Z AUTO 04003KT 1/2SM R24/2000V4500FT FG VV002 19/19 A2982 RMK AO2 SLP094 T01890189
KCRQ 311210Z AUTO 00000KT 1 3/4SM R24/6000VP6000FT BR OVC002 19/19 A2982 RMK AO2 T01890189
KCRQ 311557Z 3116/0112 VRB05KT 4SM BR BKN004 
     FM311730 VRB04KT 6SM HZ SCT006 
     FM311900 25008KT P6SM SCT006 
     FM010200 VRB04KT P6SM SCT006 
     FM010600 VRB03KT 3SM BR OVC004